Time;durP1;ratioP1;P1;durP2;ratioP2;P2;SDS_P1;SDS_P2;PMS_P1;PMS_P2;Temp;Humidity;BMP_temperature;BMP_pressure;BME280_temperature;BME280_humidity;BME280_pressure;Samples;Min_cycle;Max_cycle;Signal;HPM_P1;HPM_P2
2021/07/07 00:01:23;;;;;;;12.57;3.42;;;45.20;14.90;;;;;;5082633;28;20122;-65
2021/07/07 00:03:49;;;;;;;12.68;1.65;;;45.20;15.20;;;;;;5082491;28;20432;-67
2021/07/07 00:06:16;;;;;;;9.52;1.80;;;45.20;15.00;;;;;;5086076;28;20123;-67
2021/07/07 00:08:42;;;;;;;9.35;2.08;;;45.20;14.80;;;;;;5084689;28;20122;-69
2021/07/07 00:11:11;;;;;;;20.80;1.90;;;45.20;14.80;;;;;;5086129;28;20096;-68
2021/07/07 00:13:37;;;;;;;11.73;1.60;;;45.20;13.90;;;;;;5084835;28;20146;-69
2021/07/07 00:16:04;;;;;;;11.98;1.50;;;45.00;13.80;;;;;;5082082;28;20067;-67
2021/07/07 00:18:30;;;;;;;8.07;1.70;;;44.90;13.90;;;;;;5084905;28;20077;-66
2021/07/07 00:20:57;;;;;;;8.85;1.75;;;44.70;14.30;;;;;;5084516;28;20069;-70
2021/07/07 00:23:28;;;;;;;12.05;1.98;;;44.60;14.70;;;;;;5085462;28;20512;-68
2021/07/07 00:25:55;;;;;;;11.38;1.90;;;44.60;15.10;;;;;;5082884;28;20072;-71
2021/07/07 00:28:23;;;;;;;8.27;1.70;;;44.50;15.40;;;;;;5085677;28;20068;-65
2021/07/07 00:30:50;;;;;;;10.63;1.45;;;44.40;15.00;;;;;;5080877;28;20146;-69
2021/07/07 00:33:18;;;;;;;7.55;1.45;;;44.50;15.50;;;;;;5087572;28;20073;-68
2021/07/07 00:35:45;;;;;;;9.02;1.75;;;44.60;15.30;;;;;;5081984;28;20108;-68
2021/07/07 00:38:15;;;;;;;5.47;1.80;;;44.60;15.00;;;;;;5084747;28;20478;-69
2021/07/07 00:40:43;;;;;;;5.75;1.70;;;44.60;14.50;;;;;;5081560;28;20575;-67
2021/07/07 00:43:09;;;;;;;8.57;1.73;;;44.50;14.90;;;;;;5086873;28;20133;-67
2021/07/07 00:45:36;;;;;;;6.95;1.52;;;44.50;15.50;;;;;;5085307;28;20069;-69
2021/07/07 00:48:03;;;;;;;5.25;1.75;;;44.40;15.60;;;;;;5080282;28;20120;-70
2021/07/07 00:50:30;;;;;;;8.27;1.35;;;44.30;15.40;;;;;;5083466;28;20077;-70
2021/07/07 00:52:57;;;;;;;10.75;1.85;;;44.30;15.00;;;;;;5084716;28;20542;-67
2021/07/07 00:55:25;;;;;;;5.82;1.83;;;44.30;15.10;;;;;;5083093;28;20105;-68
2021/07/07 00:57:52;;;;;;;9.23;1.52;;;44.30;15.50;;;;;;5083899;28;20075;-69
2021/07/07 01:00:24;;;;;;;9.35;2.03;;;44.20;15.60;;;;;;5088275;28;20192;-69
2021/07/07 01:02:53;;;;;;;7.50;1.60;;;44.10;15.90;;;;;;5089466;28;20095;-69
2021/07/07 01:05:20;;;;;;;3.80;1.73;;;44.20;16.00;;;;;;5083095;28;20139;-68
2021/07/07 01:07:47;;;;;;;8.68;1.70;;;44.20;15.90;;;;;;5085053;28;20285;-68
2021/07/07 01:10:15;;;;;;;4.53;2.10;;;44.10;16.00;;;;;;5085429;28;20624;-68
2021/07/07 01:12:42;;;;;;;14.18;2.17;;;44.00;16.10;;;;;;5085293;28;20164;-69
2021/07/07 01:15:15;;;;;;;8.75;1.60;;;44.00;16.30;;;;;;5084763;28;20432;-69
2021/07/07 01:17:43;;;;;;;8.57;1.60;;;43.80;16.50;;;;;;5085466;28;20099;-69
2021/07/07 01:20:12;;;;;;;9.75;1.90;;;43.70;16.70;;;;;;5081455;28;20085;-67
2021/07/07 01:22:42;;;;;;;11.20;2.00;;;43.60;16.80;;;;;;5087038;28;20098;-68
2021/07/07 01:25:12;;;;;;;7.20;1.50;;;43.50;16.30;;;;;;5085255;28;20421;-69
2021/07/07 01:27:40;;;;;;;4.78;1.77;;;43.40;16.90;;;;;;5085948;28;20073;-68
2021/07/07 01:30:09;;;;;;;6.25;2.30;;;43.30;16.90;;;;;;5082634;28;20076;-69
2021/07/07 01:32:36;;;;;;;6.40;2.13;;;43.20;16.80;;;;;;5083452;28;20073;-68
2021/07/07 01:35:04;;;;;;;4.97;1.75;;;43.10;17.30;;;;;;5090094;28;20191;-68
2021/07/07 01:37:31;;;;;;;8.18;1.80;;;43.10;17.30;;;;;;5087075;28;20126;-69
2021/07/07 01:39:57;;;;;;;5.90;1.98;;;42.90;17.90;;;;;;5083140;28;20080;-68
2021/07/07 01:42:24;;;;;;;10.80;2.13;;;43.00;17.60;;;;;;5085213;28;20128;-68
2021/07/07 01:44:51;;;;;;;11.20;2.00;;;42.90;17.90;;;;;;5086494;28;20102;-68
2021/07/07 01:47:17;;;;;;;6.78;2.20;;;42.80;17.50;;;;;;5083984;28;20409;-69
2021/07/07 01:49:43;;;;;;;13.57;2.40;;;42.70;17.70;;;;;;5085515;28;20100;-69
2021/07/07 01:52:10;;;;;;;7.30;1.77;;;42.70;17.60;;;;;;5085402;28;20093;-68
2021/07/07 01:54:36;;;;;;;8.60;2.20;;;42.60;17.60;;;;;;5083971;28;20580;-68
2021/07/07 01:57:06;;;;;;;7.25;2.13;;;42.40;17.90;;;;;;5084280;28;20065;-68
2021/07/07 01:59:33;;;;;;;4.15;1.58;;;42.40;18.50;;;;;;5085336;28;20121;-69
2021/07/07 02:02:00;;;;;;;10.95;2.45;;;42.30;17.70;;;;;;5087329;28;20087;-69
2021/07/07 02:04:26;;;;;;;8.13;2.70;;;41.40;18.00;;;;;;5081906;28;20112;-68
2021/07/07 02:06:53;;;;;;;7.25;2.20;;;42.00;18.20;;;;;;5084772;28;20429;-69
2021/07/07 02:09:20;;;;;;;6.68;2.13;;;42.00;18.10;;;;;;5088742;28;20121;-69
2021/07/07 02:11:47;;;;;;;6.60;1.70;;;41.90;18.20;;;;;;5103915;28;20076;-69
2021/07/07 02:14:15;;;;;;;5.55;1.98;;;41.80;18.20;;;;;;5084852;28;20092;-68
2021/07/07 02:16:43;;;;;;;8.52;2.40;;;41.70;18.40;;;;;;5085073;28;20073;-68
2021/07/07 02:19:09;;;;;;;15.18;2.33;;;41.70;18.00;;;;;;5089103;28;20103;-67
2021/07/07 02:21:36;;;;;;;18.33;4.75;;;41.60;18.40;;;;;;5086928;28;20130;-68
2021/07/07 02:24:03;;;;;;;29.02;5.25;;;41.50;18.90;;;;;;5086431;28;20094;-68
2021/07/07 02:26:29;;;;;;;19.08;4.22;;;41.50;19.30;;;;;;5086145;28;20077;-68
2021/07/07 02:28:56;;;;;;;16.95;2.97;;;41.40;19.50;;;;;;5087551;28;20076;-68
2021/07/07 02:31:28;;;;;;;15.63;2.83;;;41.30;19.40;;;;;;5082212;28;20080;-68
2021/07/07 02:33:55;;;;;;;20.05;2.28;;;41.20;19.40;;;;;;5082425;28;20097;-68
2021/07/07 02:36:22;;;;;;;21.15;1.92;;;41.10;18.90;;;;;;5085732;28;20076;-68
2021/07/07 02:38:48;;;;;;;15.85;1.70;;;40.90;18.90;;;;;;5085915;28;20084;-68
2021/07/07 02:41:14;;;;;;;20.90;2.30;;;40.80;19.10;;;;;;5087552;28;20170;-68
2021/07/07 02:43:41;;;;;;;17.02;1.92;;;40.70;19.20;;;;;;5087534;28;20167;-69
2021/07/07 02:46:08;;;;;;;16.25;1.85;;;40.50;19.50;;;;;;5084989;28;20076;-67
2021/07/07 02:48:34;;;;;;;12.05;2.03;;;40.50;19.60;;;;;;5083092;28;20433;-67
2021/07/07 02:51:01;;;;;;;13.73;1.90;;;40.30;19.80;;;;;;5086324;28;20500;-69
2021/07/07 02:53:28;;;;;;;15.90;2.40;;;40.30;19.90;;;;;;5082428;28;20076;-66
2021/07/07 02:55:54;;;;;;;14.90;2.47;;;40.20;19.80;;;;;;5087400;28;20087;-67
2021/07/07 02:58:21;;;;;;;16.45;2.53;;;40.10;19.80;;;;;;5082311;28;20069;-69
2021/07/07 03:00:51;;;;;;;14.25;2.10;;;40.00;19.80;;;;;;5084256;28;20835;-68
2021/07/07 03:03:23;;;;;;;19.30;2.17;;;39.90;19.70;;;;;;5084892;28;20102;-69
2021/07/07 03:06:01;;;;;;;14.68;2.55;;;39.80;19.20;;;;;;5085353;28;20075;-68
2021/07/07 03:08:32;;;;;;;23.65;2.70;;;39.80;19.40;;;;;;5084291;28;20441;-69
2021/07/07 03:11:01;;;;;;;21.58;2.40;;;39.70;19.30;;;;;;5086591;28;20537;-68
2021/07/07 03:13:29;;;;;;;20.17;2.50;;;39.60;19.20;;;;;;5085531;28;20426;-67
2021/07/07 03:15:55;;;;;;;19.85;2.45;;;39.50;19.20;;;;;;5084374;28;20079;-70
2021/07/07 03:18:22;;;;;;;16.30;2.50;;;39.40;19.40;;;;;;5084000;28;20088;-68
2021/07/07 03:20:50;;;;;;;39.17;4.00;;;39.30;19.40;;;;;;5083606;28;20080;-67
2021/07/07 03:23:18;;;;;;;30.42;3.17;;;39.20;19.40;;;;;;5086472;28;20159;-68
2021/07/07 03:25:46;;;;;;;40.30;3.85;;;39.10;19.10;;;;;;5087627;28;20133;-67
2021/07/07 03:28:13;;;;;;;45.50;6.28;;;39.10;19.00;;;;;;5082732;28;20151;-68
2021/07/07 03:30:39;;;;;;;52.00;5.15;;;39.00;19.10;;;;;;5088312;28;20115;-68
2021/07/07 03:33:06;;;;;;;59.70;6.47;;;38.90;19.20;;;;;;5082956;28;20134;-68
2021/07/07 03:35:33;;;;;;;70.22;5.75;;;38.80;19.10;;;;;;5084047;28;20517;-68
2021/07/07 03:38:00;;;;;;;65.85;6.22;;;38.70;19.20;;;;;;5078432;28;20098;-68
2021/07/07 03:40:27;;;;;;;75.22;6.20;;;38.80;19.40;;;;;;5080387;28;20069;-67
2021/07/07 03:42:54;;;;;;;68.38;5.45;;;38.60;19.40;;;;;;5082572;28;20120;-65
2021/07/07 03:45:21;;;;;;;73.80;5.78;;;38.50;19.20;;;;;;5081881;28;20080;-69
2021/07/07 03:47:49;;;;;;;72.47;5.80;;;38.50;18.90;;;;;;5089065;28;20072;-68
2021/07/07 03:50:17;;;;;;;61.22;5.20;;;38.50;18.90;;;;;;5081041;28;20089;-67
2021/07/07 03:52:44;;;;;;;40.90;4.22;;;38.50;18.50;;;;;;5080520;28;20081;-68
2021/07/07 03:55:12;;;;;;;45.63;4.57;;;38.50;18.40;;;;;;5081045;28;20097;-68
2021/07/07 03:57:39;;;;;;;39.70;3.28;;;38.50;18.40;;;;;;5070946;22;20192;-68
2021/07/07 04:00:09;;;;;;;44.95;7.70;;;38.40;18.40;;;;;;5049700;28;20073;-68
2021/07/07 04:02:35;;;;;;;42.00;4.40;;;38.30;18.40;;;;;;5049966;28;20088;-69
2021/07/07 04:05:03;;;;;;;37.67;6.45;;;38.30;18.30;;;;;;5050208;28;20541;-69
2021/07/07 04:07:29;;;;;;;27.70;4.47;;;38.20;18.30;;;;;;5051151;28;20074;-68
2021/07/07 04:09:58;;;;;;;35.47;4.40;;;38.20;18.30;;;;;;5049566;28;20124;-68
2021/07/07 04:12:24;;;;;;;38.08;4.38;;;38.10;18.40;;;;;;5050699;28;20104;-68
2021/07/07 04:14:51;;;;;;;32.72;3.88;;;38.10;18.70;;;;;;5051264;28;20558;-67
2021/07/07 04:17:18;;;;;;;27.42;3.63;;;38.10;18.30;;;;;;5050674;28;20152;-68
2021/07/07 04:19:44;;;;;;;30.52;3.33;;;38.00;18.00;;;;;;5051172;28;20078;-68
2021/07/07 04:22:11;;;;;;;32.70;3.67;;;38.00;18.90;;;;;;5051532;28;20084;-67
2021/07/07 04:24:37;;;;;;;33.38;3.72;;;37.90;18.60;;;;;;5048856;28;20074;-68
2021/07/07 04:27:04;;;;;;;31.42;3.65;;;37.80;18.80;;;;;;5050596;28;20109;-68
2021/07/07 04:29:31;;;;;;;27.65;3.22;;;37.80;18.80;;;;;;5050440;28;20119;-67
2021/07/07 04:31:57;;;;;;;17.17;2.97;;;37.80;18.80;;;;;;5050635;28;20066;-68
2021/07/07 04:34:25;;;;;;;17.27;2.75;;;37.70;18.70;;;;;;5050548;28;20139;-66
2021/07/07 04:36:52;;;;;;;14.25;3.17;;;37.60;18.50;;;;;;5049664;28;20500;-67
2021/07/07 04:39:19;;;;;;;22.80;3.45;;;37.60;18.40;;;;;;5048811;28;20081;-67
2021/07/07 04:41:46;;;;;;;19.08;2.83;;;37.50;18.20;;;;;;5050544;28;20080;-67
2021/07/07 04:44:12;;;;;;;19.75;2.35;;;37.50;18.50;;;;;;5051267;28;20576;-68
2021/07/07 04:46:39;;;;;;;15.98;2.17;;;37.40;17.60;;;;;;5050688;28;20149;-67
2021/07/07 04:49:05;;;;;;;16.58;2.42;;;37.40;18.30;;;;;;5049043;28;20077;-67
2021/07/07 04:51:32;;;;;;;16.80;2.40;;;37.40;18.90;;;;;;5050710;28;20577;-68
2021/07/07 04:53:58;;;;;;;16.40;2.63;;;37.30;18.60;;;;;;5048797;28;20150;-67
2021/07/07 04:56:25;;;;;;;11.60;1.83;;;37.20;18.90;;;;;;5049215;28;20126;-69
2021/07/07 04:58:51;;;;;;;12.35;2.20;;;37.20;18.40;;;;;;5049890;28;20576;-68
2021/07/07 05:01:18;;;;;;;15.82;2.22;;;37.10;18.60;;;;;;5049703;28;20085;-69
2021/07/07 05:03:44;;;;;;;17.02;3.60;;;37.00;18.50;;;;;;5051488;28;20522;-68
2021/07/07 05:06:14;;;;;;;14.55;4.47;;;36.90;18.20;;;;;;5049838;28;20081;-67
2021/07/07 05:08:40;;;;;;;17.95;3.88;;;36.90;18.30;;;;;;5049699;28;20065;-68
2021/07/07 05:11:07;;;;;;;13.15;3.10;;;36.80;18.50;;;;;;5050735;28;20210;-69
2021/07/07 05:13:34;;;;;;;11.68;2.50;;;36.80;18.70;;;;;;5049601;28;20082;-69
2021/07/07 05:16:00;;;;;;;11.68;2.10;;;36.70;18.60;;;;;;5048986;28;20081;-68
2021/07/07 05:18:27;;;;;;;11.43;2.22;;;36.60;18.60;;;;;;5050581;28;20541;-69
2021/07/07 05:20:54;;;;;;;16.38;2.28;;;36.60;18.70;;;;;;5049087;28;20093;-69
2021/07/07 05:23:20;;;;;;;13.35;2.30;;;36.60;19.00;;;;;;5048935;28;20177;-68
2021/07/07 05:25:48;;;;;;;17.58;2.00;;;36.60;19.00;;;;;;5049844;28;20078;-67
2021/07/07 05:28:15;;;;;;;17.33;3.28;;;36.50;19.40;;;;;;5050136;28;20074;-68
2021/07/07 05:30:42;;;;;;;15.20;2.92;;;36.50;19.30;;;;;;5048292;28;20132;-69
2021/07/07 05:33:09;;;;;;;21.13;3.17;;;36.50;19.50;;;;;;5050250;28;20158;-67
2021/07/07 05:35:37;;;;;;;10.77;2.70;;;36.50;19.60;;;;;;5049777;28;20101;-68
2021/07/07 05:38:05;;;;;;;18.75;2.53;;;36.40;19.70;;;;;;5049851;28;20089;-68
2021/07/07 05:40:32;;;;;;;20.85;3.38;;;36.40;20.00;;;;;;5049948;28;20407;-68
2021/07/07 05:42:58;;;;;;;11.73;1.90;;;36.40;20.20;;;;;;5053301;28;20116;-68
2021/07/07 05:45:26;;;;;;;17.83;2.42;;;36.30;20.20;;;;;;5053962;28;20159;-68
2021/07/07 05:47:54;;;;;;;17.08;1.98;;;36.20;20.90;;;;;;5053320;28;20546;-68
2021/07/07 05:50:22;;;;;;;17.30;2.83;;;36.10;20.50;;;;;;5052778;28;20081;-67
2021/07/07 05:52:48;;;;;;;17.73;2.67;;;36.10;20.60;;;;;;5053612;28;20100;-67
2021/07/07 05:55:15;;;;;;;15.25;2.65;;;36.10;20.90;;;;;;5053580;28;20592;-67
2021/07/07 05:57:42;;;;;;;18.05;3.17;;;36.00;20.90;;;;;;5053378;28;20109;-66
2021/07/07 06:00:18;;;;;;;15.63;3.50;;;36.00;21.10;;;;;;5053869;28;20181;-67
2021/07/07 06:02:47;;;;;;;12.32;4.55;;;35.90;21.20;;;;;;5053613;28;20155;-67
2021/07/07 06:05:15;;;;;;;13.02;4.45;;;35.80;21.30;;;;;;5053291;28;20154;-67
2021/07/07 06:07:42;;;;;;;13.90;4.40;;;35.80;21.10;;;;;;5052850;28;20164;-67
2021/07/07 06:10:11;;;;;;;14.05;4.90;;;35.70;21.20;;;;;;5053146;28;20066;-67
2021/07/07 06:12:38;;;;;;;18.90;4.60;;;35.60;21.30;;;;;;5052803;28;20089;-67
2021/07/07 06:15:07;;;;;;;21.15;4.78;;;35.50;21.40;;;;;;5057503;28;20124;-67
2021/07/07 06:17:34;;;;;;;21.35;5.40;;;35.50;21.20;;;;;;5051778;28;20070;-66
2021/07/07 06:20:00;;;;;;;16.95;4.78;;;35.40;20.80;;;;;;5053604;28;20498;-66
2021/07/07 06:22:27;;;;;;;17.77;4.53;;;35.40;21.00;;;;;;5053243;28;20154;-68
2021/07/07 06:24:54;;;;;;;18.83;4.45;;;35.30;21.60;;;;;;5051589;28;20160;-67
2021/07/07 06:27:20;;;;;;;18.00;4.15;;;35.40;21.30;;;;;;5052641;28;20116;-67
2021/07/07 06:29:47;;;;;;;18.50;4.47;;;35.40;21.70;;;;;;5050796;28;20069;-67
2021/07/07 06:32:14;;;;;;;26.02;4.53;;;35.40;21.80;;;;;;5053039;28;20161;-67
2021/07/07 06:34:41;;;;;;;19.52;4.03;;;35.30;21.60;;;;;;5053058;28;20089;-67
2021/07/07 06:37:09;;;;;;;13.55;3.42;;;35.20;21.60;;;;;;5050719;28;20439;-67
2021/07/07 06:39:36;;;;;;;17.05;4.50;;;35.20;21.30;;;;;;5050503;28;20535;-67
2021/07/07 06:42:04;;;;;;;17.05;3.85;;;35.10;21.00;;;;;;5052389;28;20469;-67
2021/07/07 06:44:31;;;;;;;20.30;3.78;;;35.10;21.00;;;;;;5052115;28;20081;-67
2021/07/07 06:47:00;;;;;;;18.45;3.58;;;35.00;20.90;;;;;;5052409;28;20519;-67
2021/07/07 06:49:27;;;;;;;16.92;3.50;;;35.00;21.00;;;;;;5053050;28;20494;-67
2021/07/07 06:51:53;;;;;;;15.60;3.13;;;35.00;21.00;;;;;;5052262;28;20081;-67
2021/07/07 06:54:20;;;;;;;20.23;4.20;;;35.00;21.50;;;;;;5051154;28;20094;-67
2021/07/07 06:56:46;;;;;;;16.27;3.17;;;35.00;21.20;;;;;;5050726;28;20137;-67
2021/07/07 06:59:13;;;;;;;15.30;3.05;;;35.00;21.30;;;;;;5050927;28;20153;-67
2021/07/07 07:01:39;;;;;;;11.38;2.63;;;34.90;21.00;;;;;;5051798;28;20465;-67
2021/07/07 07:04:05;;;;;;;17.33;2.72;;;34.80;21.00;;;;;;5051888;28;20073;-67
2021/07/07 07:06:32;;;;;;;15.70;3.08;;;34.80;21.60;;;;;;5051773;28;20093;-67
2021/07/07 07:08:58;;;;;;;19.75;3.40;;;34.70;21.60;;;;;;5052296;28;20074;-67
2021/07/07 07:11:25;;;;;;;22.75;3.45;;;34.70;21.70;;;;;;5052644;28;20111;-67
2021/07/07 07:13:51;;;;;;;14.40;3.42;;;34.70;21.90;;;;;;5051979;28;20098;-67
2021/07/07 07:16:19;;;;;;;18.65;3.60;;;34.70;22.00;;;;;;5050586;28;20080;-67
2021/07/07 07:18:45;;;;;;;15.43;3.95;;;34.60;22.20;;;;;;5052234;28;20156;-64
2021/07/07 07:21:15;;;;;;;30.90;3.85;;;34.60;22.60;;;;;;5063609;28;20157;-66
2021/07/07 07:23:42;;;;;;;26.50;4.13;;;34.50;22.90;;;;;;5057131;28;20074;-65
2021/07/07 07:26:08;;;;;;;25.00;4.78;;;34.50;22.60;;;;;;5051654;28;20516;-66
2021/07/07 07:28:35;;;;;;;27.98;4.10;;;34.40;23.00;;;;;;5051963;28;20435;-65
2021/07/07 07:31:01;;;;;;;32.95;4.57;;;34.40;23.10;;;;;;5051720;28;20124;-66
2021/07/07 07:33:28;;;;;;;23.38;4.00;;;34.40;23.20;;;;;;5051628;28;20082;-66
2021/07/07 07:35:55;;;;;;;48.85;5.13;;;34.30;23.50;;;;;;5052072;28;20081;-65
2021/07/07 07:38:59;;;;;;;26.92;4.75;;;34.30;23.90;;;;;;5041569;28;20106;-65
2021/07/07 07:41:15;;;;;;;25.50;4.10;;;34.20;23.80;;;;;;5048233;28;20073;-66
2021/07/07 07:43:43;;;;;;;29.58;4.47;;;34.10;23.90;;;;;;5049863;28;20510;-66
2021/07/07 07:46:10;;;;;;;17.85;4.07;;;34.10;24.40;;;;;;5049831;28;20438;-66
2021/07/07 07:48:36;;;;;;;23.83;3.40;;;34.10;24.30;;;;;;5049987;28;20069;-66
2021/07/07 07:51:03;;;;;;;20.63;3.17;;;34.00;24.60;;;;;;5050736;28;20419;-66
2021/07/07 07:53:33;;;;;;;29.40;3.53;;;33.90;24.80;;;;;;5050472;28;20077;-66
2021/07/07 07:55:59;;;;;;;24.20;4.88;;;33.90;24.90;;;;;;5050420;28;20084;-66
2021/07/07 07:58:25;;;;;;;29.67;6.80;;;33.90;25.00;;;;;;5050915;28;20162;-67
2021/07/07 08:00:52;;;;;;;27.58;4.45;;;33.80;25.20;;;;;;5049782;28;21233;-66
2021/07/07 08:03:18;;;;;;;19.08;4.32;;;33.70;25.70;;;;;;5049975;28;20132;-67
2021/07/07 08:05:45;;;;;;;20.40;4.15;;;33.70;26.00;;;;;;5049934;28;20065;-66
2021/07/07 08:08:12;;;;;;;23.92;4.88;;;33.70;26.00;;;;;;5051567;28;20069;-65
2021/07/07 08:10:39;;;;;;;21.73;5.38;;;33.60;26.30;;;;;;5051011;28;20092;-68
2021/07/07 08:13:06;;;;;;;21.23;6.13;;;33.50;26.30;;;;;;5050825;28;20404;-66
2021/07/07 08:15:34;;;;;;;29.30;6.47;;;33.50;26.70;;;;;;5050832;28;20551;-66
2021/07/07 08:18:00;;;;;;;26.70;5.38;;;33.50;26.70;;;;;;5050691;28;20093;-66
2021/07/07 08:20:28;;;;;;;19.58;5.07;;;33.40;26.60;;;;;;5049304;28;20541;-66
2021/07/07 08:22:55;;;;;;;21.13;4.45;;;33.40;26.80;;;;;;5050764;28;20122;-67
2021/07/07 08:25:22;;;;;;;18.10;4.28;;;33.30;26.80;;;;;;5049878;28;20147;-67
2021/07/07 08:27:49;;;;;;;16.42;4.05;;;33.30;26.90;;;;;;5050547;28;20214;-67
2021/07/07 08:30:16;;;;;;;18.77;3.97;;;33.30;26.90;;;;;;5049146;28;20073;-66
2021/07/07 08:32:43;;;;;;;15.77;3.88;;;33.20;27.10;;;;;;5051380;28;20111;-66
2021/07/07 08:35:11;;;;;;;14.45;3.72;;;33.10;27.10;;;;;;5050518;28;20085;-66
2021/07/07 08:37:39;;;;;;;16.02;2.97;;;33.10;27.20;;;;;;5050473;28;20072;-66
2021/07/07 08:40:06;;;;;;;19.85;3.15;;;33.10;27.00;;;;;;5050382;28;20077;-66
2021/07/07 08:42:35;;;;;;;13.52;2.60;;;33.00;27.40;;;;;;5050193;28;20081;-66
2021/07/07 08:45:08;;;;;;;12.07;2.92;;;32.90;27.40;;;;;;5050410;28;20426;-66
2021/07/07 08:47:40;;;;;;;15.95;3.08;;;32.90;27.50;;;;;;5050579;28;20103;-66
2021/07/07 08:50:12;;;;;;;21.20;2.45;;;32.80;27.70;;;;;;5048919;28;20069;-66
2021/07/07 08:52:40;;;;;;;12.98;2.70;;;32.70;27.70;;;;;;5050434;28;20105;-66
2021/07/07 08:55:09;;;;;;;12.45;3.80;;;32.70;28.10;;;;;;5050393;28;20093;-66
2021/07/07 08:57:43;;;;;;;13.90;4.20;;;32.60;28.40;;;;;;5049358;28;20109;-66
2021/07/07 09:00:19;;;;;;;13.43;4.10;;;32.50;28.60;;;;;;5051056;28;20092;-66
2021/07/07 09:02:50;;;;;;;20.65;5.35;;;32.50;28.60;;;;;;5051286;28;20069;-67
2021/07/07 09:05:17;;;;;;;13.77;5.05;;;32.50;28.70;;;;;;5049655;28;20540;-66
2021/07/07 09:07:44;;;;;;;19.77;4.53;;;32.40;28.90;;;;;;5049841;28;20203;-66
2021/07/07 09:10:16;;;;;;;15.07;4.05;;;32.30;29.10;;;;;;5050064;28;20164;-66
2021/07/07 09:12:42;;;;;;;14.35;4.20;;;32.30;29.40;;;;;;5050801;28;20546;-66
2021/07/07 09:15:16;;;;;;;18.00;5.30;;;32.30;30.10;;;;;;5049717;28;20137;-65
2021/07/07 09:17:44;;;;;;;16.85;5.20;;;32.20;37.00;;;;;;5053227;28;20464;-66
2021/07/07 09:20:24;;;;;;;17.10;5.10;;;32.10;46.30;;;;;;5053799;28;20520;-67
2021/07/07 09:23:11;;;;;;;18.98;5.15;;;32.10;31.20;;;;;;5053031;28;20070;-66
2021/07/07 09:25:53;;;;;;;18.65;4.75;;;32.10;31.40;;;;;;5052112;28;20095;-67
2021/07/07 09:28:23;;;;;;;18.20;4.32;;;32.00;31.70;;;;;;5053207;28;20085;-67
2021/07/07 09:30:51;;;;;;;17.70;4.15;;;31.90;32.80;;;;;;5053301;28;20416;-67
2021/07/07 09:33:17;;;;;;;11.80;3.15;;;31.90;33.60;;;;;;5053856;28;20097;-66
2021/07/07 09:35:44;;;;;;;13.98;3.05;;;31.90;34.80;;;;;;5052031;28;20090;-66
2021/07/07 09:38:11;;;;;;;12.18;3.25;;;31.80;35.70;;;;;;5053567;28;20070;-66
2021/07/07 09:40:44;;;;;;;15.75;3.25;;;31.80;36.70;;;;;;5052470;28;20465;-66
2021/07/07 09:43:11;;;;;;;8.05;2.92;;;31.80;37.10;;;;;;5056710;28;20077;-66
2021/07/07 09:45:46;;;;;;;12.77;3.10;;;31.50;46.10;;;;;;5067438;28;20082;-65
2021/07/07 09:48:16;;;;;;;14.77;2.78;;;31.60;44.90;;;;;;5053357;28;20091;-66
2021/07/07 09:50:44;;;;;;;15.30;3.05;;;31.60;40.20;;;;;;5055672;28;20542;-66
2021/07/07 09:53:15;;;;;;;10.57;2.42;;;31.70;40.70;;;;;;5052229;28;20112;-66
2021/07/07 09:55:42;;;;;;;13.20;2.80;;;31.70;41.70;;;;;;5053484;28;20097;-66
2021/07/07 09:58:09;;;;;;;13.95;3.33;;;31.60;42.40;;;;;;5052331;28;20630;-66
2021/07/07 10:00:39;;;;;;;8.43;3.35;;;31.60;42.90;;;;;;5052947;28;20423;-66
2021/07/07 10:03:07;;;;;;;10.70;3.33;;;31.50;44.20;;;;;;5053693;28;20087;-66
2021/07/07 10:05:39;;;;;;;10.35;3.25;;;31.40;45.00;;;;;;5069155;28;20527;-66
2021/07/07 10:08:07;;;;;;;18.70;3.60;;;31.40;45.60;;;;;;5053645;28;20131;-66
2021/07/07 10:10:38;;;;;;;9.32;3.47;;;31.40;46.10;;;;;;5053118;28;20069;-66
2021/07/07 10:13:05;;;;;;;14.55;3.65;;;31.30;46.80;;;;;;5053210;28;20550;-66
2021/07/07 10:15:32;;;;;;;14.80;4.00;;;31.30;54.80;;;;;;5052646;28;20203;-65
2021/07/07 10:17:59;;;;;;;14.52;4.30;;;31.40;61.10;;;;;;5053008;28;20013;-65
2021/07/07 10:20:26;;;;;;;13.73;4.55;;;;;;;;;;5066392;28;20164;-66
2021/07/07 10:22:53;;;;;;;20.42;4.50;;;31.40;59.80;;;;;;5052060;28;20025;-66
2021/07/07 10:25:24;;;;;;;14.43;4.60;;;31.20;77.00;;;;;;5053459;28;20100;-66
2021/07/07 10:27:53;;;;;;;11.88;4.72;;;31.30;50.60;;;;;;5051473;28;20024;-66
2021/07/07 10:30:20;;;;;;;15.73;4.80;;;31.30;51.20;;;;;;5051361;28;20080;-66
2021/07/07 10:33:09;;;;;;;15.77;4.88;;;31.30;51.50;;;;;;5052784;28;20115;-66
2021/07/07 10:35:36;;;;;;;12.55;4.20;;;;;;;;;;5052996;28;20180;-67
2021/07/07 10:38:05;;;;;;;9.27;3.83;;;31.30;53.80;;;;;;5052875;28;20471;-67
2021/07/07 10:40:37;;;;;;;12.32;4.07;;;31.30;52.20;;;;;;5053203;28;20077;-66
2021/07/07 10:43:05;;;;;;;9.63;3.75;;;31.20;52.60;;;;;;5052851;28;20077;-66
2021/07/07 10:45:44;;;;;;;19.85;4.30;;;31.20;53.40;;;;;;5053260;28;20069;-66
2021/07/07 10:48:32;;;;;;;12.43;4.35;;;31.20;53.60;;;;;;5051928;28;20073;-66
2021/07/07 10:51:12;;;;;;;9.90;3.50;;;31.30;53.50;;;;;;5052829;28;20180;-66
2021/07/07 10:53:39;;;;;;;13.30;3.35;;;31.20;53.80;;;;;;5052184;28;20073;-66
2021/07/07 10:56:07;;;;;;;13.25;3.72;;;31.10;54.00;;;;;;5050813;28;20080;-67
2021/07/07 10:58:39;;;;;;;11.45;3.53;;;31.00;54.40;;;;;;5052316;28;20113;-66
2021/07/07 11:01:38;;;;;;;9.20;3.55;;;31.00;54.50;;;;;;5051231;28;20096;-66
2021/07/07 11:04:06;;;;;;;8.75;3.25;;;31.00;54.90;;;;;;5045937;28;21650;-66
2021/07/07 11:06:38;;;;;;;13.85;4.20;;;31.00;55.30;;;;;;5050988;28;20073;-66
2021/07/07 11:09:12;;;;;;;10.82;3.40;;;31.00;55.20;;;;;;5050957;28;20088;-66
2021/07/07 11:11:40;;;;;;;15.30;3.75;;;31.00;55.30;;;;;;5051690;28;20074;-66
2021/07/07 11:14:27;;;;;;;12.88;3.28;;;31.00;55.60;;;;;;5052829;28;20452;-66
2021/07/07 11:16:54;;;;;;;;;;;30.90;56.30;;;;;;5053031;28;20079;-66
2021/07/07 11:19:41;;;;;;;11.27;4.43;;;30.90;56.50;;;;;;5052490;28;19961;-66
2021/07/07 11:22:09;;;;;;;15.82;6.80;;;30.80;56.80;;;;;;5052277;28;20602;-66
2021/07/07 11:24:36;;;;;;;21.80;7.03;;;30.80;57.00;;;;;;5050183;28;20078;-66
2021/07/07 11:27:04;;;;;;;22.45;8.18;;;30.80;57.00;;;;;;5051208;28;20077;-66
2021/07/07 11:29:32;;;;;;;23.60;9.88;;;30.80;57.00;;;;;;5051552;28;20522;-66
2021/07/07 11:31:59;;;;;;;22.25;8.90;;;30.80;57.20;;;;;;5051450;28;20123;-66
2021/07/07 11:34:25;;;;;;;18.75;7.32;;;30.80;57.00;;;;;;5050707;28;20098;-66
2021/07/07 11:36:53;;;;;;;21.83;7.47;;;30.80;56.70;;;;;;5050222;28;20119;-66
2021/07/07 11:39:22;;;;;;;14.77;5.72;;;30.80;56.50;;;;;;5050663;28;20069;-66
2021/07/07 11:42:06;;;;;;;12.95;4.40;;;30.80;56.10;;;;;;5050142;28;20081;-66
2021/07/07 11:44:42;;;;;;;14.50;3.78;;;30.70;55.90;;;;;;5050175;28;20474;-66
2021/07/07 11:47:10;;;;;;;13.55;2.95;;;30.70;55.80;;;;;;5051140;28;20065;-66
2021/07/07 11:49:37;;;;;;;14.98;3.30;;;30.60;55.30;;;;;;5051192;28;20077;-66
2021/07/07 11:52:05;;;;;;;19.30;3.55;;;30.70;55.20;;;;;;5051876;28;20561;-65
2021/07/07 11:54:51;;;;;;;7.88;2.90;;;30.60;55.00;;;;;;5049970;28;20097;-67
2021/07/07 11:57:18;;;;;;;9.90;3.13;;;30.60;55.10;;;;;;5050980;28;20109;-66
2021/07/07 11:59:51;;;;;;;9.88;3.33;;;30.60;55.10;;;;;;5051199;28;20078;-66
2021/07/07 12:02:19;;;;;;;14.50;3.50;;;30.50;55.50;;;;;;5050541;28;20078;-66
2021/07/07 12:04:47;;;;;;;10.43;3.10;;;30.50;55.60;;;;;;5050023;28;20073;-65
2021/07/07 12:07:14;;;;;;;11.38;3.75;;;30.50;55.40;;;;;;5051269;28;20365;-66
2021/07/07 12:09:40;;;;;;;11.32;2.85;;;30.50;55.40;;;;;;5050516;28;20430;-66
2021/07/07 12:12:08;;;;;;;12.77;3.00;;;30.60;55.30;;;;;;5049835;28;20077;-67
2021/07/07 12:14:36;;;;;;;10.38;3.33;;;30.50;55.40;;;;;;5048221;28;20649;-66
2021/07/07 12:17:04;;;;;;;12.93;3.65;;;30.50;55.70;;;;;;5050593;28;20211;-66
2021/07/07 12:19:32;;;;;;;12.80;3.22;;;30.40;55.80;;;;;;5051804;28;20128;-66
2021/07/07 12:22:07;;;;;;;18.55;3.47;;;30.40;55.90;;;;;;5051287;28;20077;-66
2021/07/07 12:24:39;;;;;;;14.68;4.07;;;30.40;56.10;;;;;;5050605;28;20080;-66
2021/07/07 12:27:13;;;;;;;26.13;5.68;;;30.40;56.20;;;;;;5050744;28;20065;-66
2021/07/07 12:29:44;;;;;;;21.27;5.55;;;30.40;56.20;;;;;;5049685;28;20120;-66
2021/07/07 12:32:28;;;;;;;29.65;10.20;;;30.40;56.40;;;;;;5050099;28;20078;-66
2021/07/07 12:34:58;;;;;;;31.95;11.02;;;30.40;56.50;;;;;;5050497;28;20181;-66
2021/07/07 12:37:26;;;;;;;23.33;10.88;;;30.30;57.00;;;;;;5049941;28;20074;-66
2021/07/07 12:39:57;;;;;;;30.23;10.45;;;30.30;57.40;;;;;;5050224;28;20073;-66
2021/07/07 12:42:29;;;;;;;25.63;8.60;;;30.30;57.70;;;;;;5050738;28;20429;-65
2021/07/07 12:45:12;;;;;;;33.40;8.48;;;30.20;58.20;;;;;;5049611;28;20169;-67